createdAt,value
2018-12-03T00:00:29.988Z,9.28
2018-12-03T00:03:04.332Z,11.00
2018-12-03T00:05:31.651Z,9.80
2018-12-03T00:07:59.250Z,10.93
2018-12-03T00:10:26.596Z,14.15
2018-12-03T00:12:54.197Z,10.08
2018-12-03T00:15:22.013Z,9.73
2018-12-03T00:17:49.572Z,10.38
2018-12-03T00:20:16.955Z,11.83
2018-12-03T00:22:44.534Z,11.85
2018-12-03T00:25:11.841Z,11.90
2018-12-03T00:27:39.634Z,10.98
2018-12-03T00:30:08.362Z,10.90
2018-12-03T00:32:35.674Z,11.20
2018-12-03T00:35:03.228Z,10.90
2018-12-03T00:37:30.537Z,10.82
2018-12-03T00:39:57.888Z,15.50
2018-12-03T00:42:25.443Z,11.50
2018-12-03T00:44:53.033Z,11.38
2018-12-03T00:47:20.352Z,13.03
2018-12-03T00:49:47.686Z,13.22
2018-12-03T00:52:15.252Z,14.98
2018-12-03T00:54:42.560Z,15.48
2018-12-03T00:57:10.166Z,15.98
2018-12-03T00:59:37.476Z,16.32
2018-12-03T01:02:05.722Z,15.60
2018-12-03T01:04:33.166Z,17.20
2018-12-03T01:07:00.733Z,17.05
2018-12-03T01:09:28.062Z,17.40
2018-12-03T01:11:55.893Z,17.37
2018-12-03T01:14:23.215Z,18.10
2018-12-03T01:16:50.751Z,16.97
2018-12-03T01:19:18.584Z,16.93
2018-12-03T01:21:45.875Z,19.05
2018-12-03T01:24:13.681Z,18.40
2018-12-03T01:26:41.055Z,18.15
2018-12-03T01:29:08.595Z,18.07
2018-12-03T01:31:35.881Z,17.65
2018-12-03T01:34:03.253Z,17.95
2018-12-03T01:36:30.816Z,18.87
2018-12-03T01:38:58.140Z,18.05
2018-12-03T01:41:25.738Z,18.12
2018-12-03T01:43:53.676Z,19.12
2018-12-03T01:46:20.974Z,18.52
2018-12-03T01:48:48.762Z,18.07
2018-12-03T01:51:16.101Z,19.77
2018-12-03T01:53:43.400Z,19.30
2018-12-03T01:56:10.714Z,20.27
2018-12-03T01:58:38.294Z,16.75
2018-12-03T02:01:05.879Z,21.75
2018-12-03T02:03:33.426Z,17.92
2018-12-03T02:06:01.253Z,19.05
2018-12-03T02:08:28.924Z,19.32
2018-12-03T02:10:56.229Z,19.73
2018-12-03T02:13:23.537Z,19.30
2018-12-03T02:15:50.853Z,21.23
2018-12-03T02:18:18.405Z,18.85
2018-12-03T02:20:45.706Z,17.62
2018-12-03T02:23:13.054Z,21.23
2018-12-03T02:25:40.588Z,17.73
2018-12-03T02:28:07.915Z,18.55
2018-12-03T02:30:35.446Z,16.85
2018-12-03T02:33:02.734Z,18.35
2018-12-03T02:35:30.333Z,16.15
2018-12-03T02:37:57.891Z,16.93
2018-12-03T02:40:25.417Z,14.83
2018-12-03T02:42:52.993Z,15.55
2018-12-03T02:45:20.560Z,32.48
2018-12-03T02:47:47.867Z,15.55
2018-12-03T02:50:16.052Z,15.58
2018-12-03T02:52:43.698Z,15.23
2018-12-03T02:55:12.459Z,15.20
2018-12-03T02:57:39.946Z,15.98
2018-12-03T03:00:12.305Z,14.55
2018-12-03T03:02:40.068Z,17.15
2018-12-03T03:05:08.682Z,16.00
2018-12-03T03:07:36.045Z,15.78
2018-12-03T03:10:04.112Z,15.18
2018-12-03T03:12:32.109Z,15.18
2018-12-03T03:14:59.826Z,16.30
2018-12-03T03:17:27.413Z,15.20
2018-12-03T03:19:54.841Z,15.53
2018-12-03T03:22:22.569Z,18.85
2018-12-03T03:24:50.570Z,29.72
2018-12-03T03:27:18.139Z,16.65
2018-12-03T03:29:45.693Z,15.28
2018-12-03T03:32:13.204Z,14.78
2018-12-03T03:34:40.763Z,15.10
2018-12-03T03:37:08.480Z,16.73
2018-12-03T03:39:36.131Z,15.93
2018-12-03T03:42:03.802Z,15.43
2018-12-03T03:44:31.201Z,15.65
2018-12-03T03:46:58.780Z,15.95
2018-12-03T03:49:26.123Z,16.17
2018-12-03T03:51:53.853Z,17.42
2018-12-03T03:54:25.266Z,16.12
2018-12-03T03:56:48.813Z,17.80
2018-12-03T03:59:16.142Z,15.83
2018-12-03T04:01:43.508Z,18.30
2018-12-03T04:04:10.904Z,15.70
2018-12-03T04:06:38.278Z,17.50
2018-12-03T04:09:06.469Z,16.73
2018-12-03T04:11:33.792Z,16.10
2018-12-03T04:14:01.387Z,15.98
2018-12-03T04:16:28.731Z,14.60
2018-12-03T04:18:57.039Z,15.03
2018-12-03T04:21:24.610Z,15.28
2018-12-03T04:23:52.257Z,16.07
2018-12-03T04:26:19.643Z,15.70
2018-12-03T04:28:47.014Z,14.07
2018-12-03T04:31:14.803Z,13.58
2018-12-03T04:33:43.234Z,13.83
2018-12-03T04:36:14.057Z,12.10
2018-12-03T04:38:41.726Z,11.83
2018-12-03T04:41:09.068Z,12.00
2018-12-03T04:43:36.405Z,11.88
2018-12-03T04:46:04.043Z,12.43
2018-12-03T04:48:31.400Z,12.30
2018-12-03T04:50:59.016Z,9.70
2018-12-03T04:53:26.343Z,9.75
2018-12-03T04:55:53.701Z,10.18
2018-12-03T04:58:21.266Z,8.68
2018-12-03T05:00:48.871Z,8.63
2018-12-03T05:03:16.207Z,7.60
2018-12-03T05:05:44.651Z,7.95
2018-12-03T05:08:12.032Z,7.47
2018-12-03T05:10:39.757Z,7.83
2018-12-03T05:13:07.326Z,8.10
2018-12-03T05:15:34.617Z,8.40
2018-12-03T05:18:02.204Z,7.83
2018-12-03T05:20:29.970Z,8.85
2018-12-03T05:22:57.514Z,8.50
2018-12-03T05:25:25.342Z,7.35
2018-12-03T05:27:53.161Z,5.95
2018-12-03T05:30:20.455Z,6.85
2018-12-03T05:32:47.842Z,5.95
2018-12-03T05:35:19.242Z,6.70
2018-12-03T05:37:46.609Z,6.05
2018-12-03T05:40:15.116Z,5.80
2018-12-03T05:42:42.618Z,4.83
2018-12-03T05:45:10.024Z,5.97
2018-12-03T05:47:37.500Z,5.70
2018-12-03T05:50:06.345Z,5.87
2018-12-03T05:52:33.942Z,7.35
2018-12-03T05:55:01.282Z,6.35
2018-12-03T05:57:28.734Z,6.53
2018-12-03T05:59:56.048Z,5.90
2018-12-03T06:02:23.646Z,5.58
2018-12-03T06:04:51.021Z,6.00
2018-12-03T06:07:18.439Z,5.85
2018-12-03T06:09:45.785Z,8.30
2018-12-03T06:12:13.394Z,5.97
2018-12-03T06:14:40.958Z,4.58
2018-12-03T06:17:08.414Z,6.95
2018-12-03T06:19:35.977Z,7.40
2018-12-03T06:22:03.407Z,4.03
2018-12-03T06:24:32.998Z,4.10
2018-12-03T06:27:00.800Z,4.47
2018-12-03T06:29:28.126Z,5.08
2018-12-03T06:31:55.833Z,3.90
2018-12-03T06:34:23.143Z,3.87
2018-12-03T06:36:50.726Z,3.87
2018-12-03T06:39:18.105Z,3.25
2018-12-03T06:41:46.003Z,3.10
2018-12-03T06:44:13.421Z,2.92
2018-12-03T06:46:40.995Z,4.87
2018-12-03T06:49:08.357Z,4.08
2018-12-03T06:51:35.663Z,4.25
2018-12-03T06:54:03.201Z,5.22
2018-12-03T06:56:30.529Z,5.70
2018-12-03T06:58:58.132Z,5.15
2018-12-03T07:01:25.706Z,5.40
2018-12-03T07:03:53.086Z,5.70
2018-12-03T07:06:20.606Z,7.92
2018-12-03T07:08:48.670Z,7.30
2018-12-03T07:11:16.086Z,7.72
2018-12-03T07:13:43.622Z,7.87
2018-12-03T07:16:11.333Z,10.18
2018-12-03T07:18:38.697Z,8.50
2018-12-03T07:21:06.544Z,8.73
2018-12-03T07:23:34.100Z,9.40
2018-12-03T07:26:01.646Z,9.40
2018-12-03T07:28:29.420Z,9.80
2018-12-03T07:30:56.738Z,9.95
2018-12-03T07:33:24.541Z,8.98
2018-12-03T07:35:51.872Z,8.18
2018-12-03T07:38:19.179Z,9.10
2018-12-03T07:40:46.500Z,8.73
2018-12-03T07:43:13.816Z,9.10
2018-12-03T07:45:41.382Z,11.57
2018-12-03T07:48:09.017Z,8.20
2018-12-03T07:50:36.791Z,9.80
2018-12-03T07:53:04.946Z,7.85
2018-12-03T07:55:32.736Z,7.12
2018-12-03T07:58:03.251Z,7.62
2018-12-03T08:00:32.468Z,6.42
2018-12-03T08:03:00.046Z,5.15
2018-12-03T08:05:27.777Z,6.08
2018-12-03T08:07:55.891Z,7.25
2018-12-03T08:10:23.458Z,5.85
2018-12-03T08:12:50.777Z,5.58
2018-12-03T08:15:18.928Z,4.87
2018-12-03T08:17:47.203Z,7.22
2018-12-03T08:20:18.501Z,5.33
2018-12-03T08:22:46.809Z,8.45
2018-12-03T08:25:14.917Z,5.70
2018-12-03T08:27:42.832Z,5.85
2018-12-03T08:30:11.605Z,5.72
2018-12-03T08:32:38.929Z,7.40
2018-12-03T08:35:08.888Z,6.95
2018-12-03T08:37:36.241Z,7.15
2018-12-03T08:40:03.596Z,8.28
2018-12-03T08:42:30.887Z,6.37
2018-12-03T08:44:58.859Z,9.20
2018-12-03T08:47:26.225Z,11.30
2018-12-03T08:49:53.816Z,11.03
2018-12-03T08:52:21.387Z,8.05
2018-12-03T08:54:48.943Z,8.40
2018-12-03T08:57:16.311Z,8.55
2018-12-03T08:59:44.136Z,6.10
2018-12-03T09:02:11.687Z,7.37
2018-12-03T09:04:38.991Z,4.95
2018-12-03T09:07:06.935Z,6.67
2018-12-03T09:09:34.266Z,8.65
2018-12-03T09:12:01.846Z,7.40
2018-12-03T09:14:30.235Z,7.35
2018-12-03T09:17:02.461Z,7.78
2018-12-03T09:19:25.632Z,8.18
2018-12-03T09:21:52.987Z,8.10
2018-12-03T09:24:20.306Z,8.23
2018-12-03T09:26:47.601Z,9.18
2018-12-03T09:29:14.951Z,7.00
2018-12-03T09:31:42.299Z,7.95
2018-12-03T09:34:09.908Z,9.00
2018-12-03T09:36:37.512Z,8.63
2018-12-03T09:39:10.656Z,8.33
2018-12-03T09:41:38.104Z,9.90
2018-12-03T09:44:06.087Z,7.25
2018-12-03T09:46:33.895Z,9.98
2018-12-03T09:49:01.316Z,10.60
2018-12-03T09:51:30.174Z,12.85
2018-12-03T09:53:57.500Z,8.13
2018-12-03T09:56:33.240Z,9.13
2018-12-03T09:59:01.887Z,9.73
2018-12-03T10:01:29.758Z,11.28
2018-12-03T10:03:57.103Z,9.90
2018-12-03T10:06:24.878Z,9.67
2018-12-03T10:08:52.460Z,6.03
2018-12-03T10:11:20.233Z,7.03
2018-12-03T10:13:47.900Z,5.03
2018-12-03T10:16:15.465Z,10.20
2018-12-03T10:18:46.628Z,9.97
2018-12-03T10:21:13.939Z,9.67
2018-12-03T10:23:41.545Z,6.80
2018-12-03T10:26:10.036Z,5.90
2018-12-03T10:28:37.413Z,8.83
2018-12-03T10:31:05.584Z,8.07
2018-12-03T10:33:33.354Z,9.43
2018-12-03T10:36:03.065Z,7.03
2018-12-03T10:38:32.465Z,7.30
2018-12-03T10:41:02.457Z,9.13
2018-12-03T10:43:29.767Z,6.70
2018-12-03T10:45:57.094Z,8.67
2018-12-03T10:48:24.423Z,9.10
2018-12-03T10:50:51.962Z,8.10
2018-12-03T10:53:26.976Z,9.20
2018-12-03T10:55:54.303Z,11.10
2018-12-03T10:58:21.926Z,8.37
2018-12-03T11:00:54.858Z,7.30
2018-12-03T11:03:27.921Z,14.00
2018-12-03T11:06:01.484Z,12.27
2018-12-03T11:08:29.272Z,9.67
2018-12-03T11:10:56.127Z,6.93
2018-12-03T11:13:23.539Z,7.60
2018-12-03T11:15:52.213Z,8.63
2018-12-03T11:18:18.951Z,10.37
2018-12-03T11:20:46.259Z,8.27
2018-12-03T11:23:17.422Z,10.77
2018-12-03T11:25:44.966Z,10.35
2018-12-03T11:28:13.275Z,9.90
2018-12-03T11:30:46.076Z,13.58
2018-12-03T11:33:13.648Z,11.68
2018-12-03T11:35:41.533Z,10.88
2018-12-03T11:38:11.418Z,9.43
2018-12-03T11:40:43.403Z,13.00
2018-12-03T11:43:11.063Z,10.08
2018-12-03T11:45:38.495Z,9.93
2018-12-03T11:48:05.899Z,14.00
2018-12-03T11:50:33.733Z,13.80
2018-12-03T11:53:01.065Z,14.50
2018-12-03T11:55:28.446Z,14.03
2018-12-03T11:57:56.364Z,11.40
2018-12-03T12:00:23.768Z,11.70
2018-12-03T12:02:51.086Z,12.95
2018-12-03T12:05:18.442Z,14.83
2018-12-03T12:07:45.971Z,11.35
2018-12-03T12:10:13.721Z,10.65
2018-12-03T12:12:41.332Z,14.65
2018-12-03T12:15:10.918Z,11.53
2018-12-03T12:17:38.524Z,14.23
2018-12-03T12:20:06.847Z,13.25
2018-12-03T12:22:34.418Z,14.05
2018-12-03T12:25:02.139Z,11.00
2018-12-03T12:27:29.478Z,13.40
2018-12-03T12:29:56.801Z,12.33
2018-12-03T12:32:24.160Z,16.40
2018-12-03T12:34:51.909Z,10.98
2018-12-03T12:37:19.690Z,14.43
2018-12-03T12:39:47.257Z,12.58
2018-12-03T12:42:14.601Z,9.98
2018-12-03T12:44:42.397Z,12.13
2018-12-03T12:47:10.049Z,14.40
2018-12-03T12:49:37.375Z,13.43
2018-12-03T12:52:04.708Z,14.98
2018-12-03T12:54:32.403Z,8.53
2018-12-03T12:57:00.383Z,15.28
2018-12-03T12:59:27.714Z,9.78
2018-12-03T13:01:55.267Z,13.93
2018-12-03T13:04:22.860Z,9.90
2018-12-03T13:06:50.456Z,12.07
2018-12-03T13:09:17.792Z,13.08
2018-12-03T13:11:45.377Z,9.58
2018-12-03T13:14:13.118Z,16.00
2018-12-03T13:16:40.687Z,13.58
2018-12-03T13:19:09.032Z,13.62
2018-12-03T13:21:36.346Z,13.18
2018-12-03T13:24:03.920Z,9.98
2018-12-03T13:26:31.739Z,11.18
2018-12-03T13:28:59.263Z,13.58
2018-12-03T13:31:26.597Z,10.10
2018-12-03T13:33:53.933Z,12.80
2018-12-03T13:36:21.512Z,16.48
2018-12-03T13:38:48.953Z,18.87
2018-12-03T13:41:16.546Z,17.67
2018-12-03T13:43:43.867Z,12.47
2018-12-03T13:46:11.184Z,11.05
2018-12-03T13:48:39.024Z,15.65
2018-12-03T13:51:06.391Z,12.18
2018-12-03T13:53:33.727Z,12.05
2018-12-03T13:56:01.277Z,10.93
2018-12-03T13:58:28.636Z,9.30
2018-12-03T14:00:56.026Z,18.75
2018-12-03T14:03:26.013Z,15.48
2018-12-03T14:05:59.019Z,14.20
2018-12-03T14:08:29.188Z,14.55
2018-12-03T14:10:58.748Z,14.85
2018-12-03T14:13:35.565Z,17.05
2018-12-03T14:16:42.651Z,11.25
2018-12-03T14:19:09.033Z,14.85
2018-12-03T14:21:37.956Z,13.93
2018-12-03T14:24:09.762Z,11.68
2018-12-03T14:26:37.113Z,13.08
2018-12-03T14:29:04.757Z,11.85
2018-12-03T14:31:33.438Z,11.78
2018-12-03T14:34:00.894Z,11.33
2018-12-03T14:36:28.279Z,14.68
2018-12-03T14:38:55.593Z,14.65
2018-12-03T14:41:22.936Z,17.80
2018-12-03T14:43:50.272Z,14.00
2018-12-03T14:46:17.561Z,15.15
2018-12-03T14:48:44.890Z,12.78
2018-12-03T14:51:12.234Z,16.85
2018-12-03T14:53:39.532Z,21.85
2018-12-03T14:56:06.855Z,13.40
2018-12-03T14:58:34.326Z,16.00
2018-12-03T15:01:02.908Z,15.43
2018-12-03T15:03:30.258Z,15.35
2018-12-03T15:05:57.612Z,13.53
2018-12-03T15:08:24.918Z,14.95
2018-12-03T15:10:52.454Z,19.07
2018-12-03T15:13:19.809Z,13.22
2018-12-03T15:15:47.125Z,15.60
2018-12-03T15:18:14.449Z,17.95
2018-12-03T15:20:41.749Z,14.63
2018-12-03T15:23:09.093Z,20.32
2018-12-03T15:25:36.434Z,15.40
2018-12-03T15:28:03.729Z,22.05
2018-12-03T15:30:31.084Z,16.70
2018-12-03T15:32:58.433Z,18.07
2018-12-03T15:35:25.728Z,16.12
2018-12-03T15:37:53.044Z,13.22
2018-12-03T15:40:20.341Z,13.35
2018-12-03T15:42:47.709Z,16.37
2018-12-03T15:45:16.921Z,16.48
2018-12-03T15:47:44.259Z,14.33
2018-12-03T15:50:11.636Z,18.17
2018-12-03T15:52:38.975Z,16.30
2018-12-03T15:55:07.101Z,16.15
2018-12-03T15:57:34.441Z,20.97
2018-12-03T16:00:01.765Z,16.35
2018-12-03T16:02:29.198Z,14.43
2018-12-03T16:04:56.509Z,21.82
2018-12-03T16:07:23.890Z,12.07
2018-12-03T16:09:53.710Z,12.98
2018-12-03T16:12:21.506Z,19.75
2018-12-03T16:14:49.179Z,15.35
2018-12-03T16:17:20.202Z,15.35
2018-12-03T16:19:44.313Z,16.60
2018-12-03T16:22:11.921Z,15.88
2018-12-03T16:24:39.235Z,17.35
2018-12-03T16:27:06.588Z,16.37
2018-12-03T16:29:33.932Z,20.92
2018-12-03T16:32:01.479Z,16.85
2018-12-03T16:34:29.036Z,17.73
2018-12-03T16:36:56.373Z,17.98
2018-12-03T16:39:23.958Z,18.80
2018-12-03T16:41:51.755Z,20.80
2018-12-03T16:44:19.166Z,20.45
2018-12-03T16:46:46.491Z,14.30
2018-12-03T16:49:14.133Z,19.35
2018-12-03T16:51:41.494Z,18.52
2018-12-03T16:54:08.901Z,17.35
2018-12-03T16:56:36.210Z,25.35
2018-12-03T16:59:03.818Z,17.70
2018-12-03T17:01:31.372Z,21.02
2018-12-03T17:03:58.729Z,15.43
2018-12-03T17:06:26.319Z,19.23
2018-12-03T17:08:53.609Z,18.30
2018-12-03T17:11:21.173Z,18.92
2018-12-03T17:13:48.489Z,25.48
2018-12-03T17:16:16.043Z,26.95
2018-12-03T17:18:43.373Z,15.58
2018-12-03T17:21:12.178Z,17.10
2018-12-03T17:24:43.660Z,18.98
2018-12-03T17:27:11.038Z,21.68
2018-12-03T17:29:38.780Z,20.25
2018-12-03T17:32:06.571Z,21.20
2018-12-03T17:34:33.976Z,16.35
2018-12-03T17:37:01.739Z,16.67
2018-12-03T17:39:29.108Z,20.50
2018-12-03T17:41:56.539Z,16.02
2018-12-03T17:44:23.847Z,15.55
2018-12-03T17:46:51.305Z,23.70
2018-12-03T17:49:18.873Z,15.45
2018-12-03T17:51:46.484Z,21.90
2018-12-03T17:54:14.070Z,17.00
2018-12-03T17:56:41.749Z,18.75
2018-12-03T17:59:09.409Z,16.02
2018-12-03T18:01:36.724Z,16.17
2018-12-03T18:04:04.060Z,18.67
2018-12-03T18:06:31.426Z,16.35
2018-12-03T18:08:59.051Z,16.62
2018-12-03T18:11:26.412Z,21.05
2018-12-03T18:13:53.983Z,13.13
2018-12-03T18:16:21.303Z,15.95
2018-12-03T18:18:48.868Z,18.92
2018-12-03T18:21:16.306Z,19.48
2018-12-03T18:23:43.879Z,22.02
2018-12-03T18:26:11.474Z,16.80
2018-12-03T18:28:38.796Z,17.50
2018-12-03T18:31:06.227Z,18.10
2018-12-03T18:33:35.915Z,13.48
2018-12-03T18:36:03.254Z,11.35
2018-12-03T18:38:30.705Z,12.60
2018-12-03T18:41:03.193Z,19.40
2018-12-03T18:43:25.662Z,17.80
2018-12-03T18:45:53.248Z,12.43
2018-12-03T18:48:20.584Z,18.07
2018-12-03T18:50:49.518Z,13.60
2018-12-03T18:53:21.900Z,19.30
2018-12-03T18:55:52.783Z,15.53
2018-12-03T18:58:25.088Z,17.02
2018-12-03T19:00:53.944Z,13.72
2018-12-03T19:03:22.831Z,26.33
2018-12-03T19:05:51.896Z,11.57
2018-12-03T19:08:20.413Z,19.52
2018-12-03T19:10:48.325Z,20.02
2018-12-03T19:13:16.210Z,13.32
2018-12-03T19:15:47.522Z,17.42
2018-12-03T19:18:17.804Z,15.25
2018-12-03T19:20:47.427Z,19.35
2018-12-03T19:23:17.468Z,16.32
2018-12-03T19:25:46.752Z,14.05
2018-12-03T19:28:16.348Z,16.65
2018-12-03T19:30:46.129Z,14.98
2018-12-03T19:33:13.624Z,14.50
2018-12-03T19:35:42.721Z,15.40
2018-12-03T19:38:13.096Z,11.97
2018-12-03T19:40:42.344Z,12.00
2018-12-03T19:43:10.336Z,16.57
2018-12-03T19:45:40.869Z,15.43
2018-12-03T19:48:08.532Z,17.65
2018-12-03T19:50:35.915Z,10.28
2018-12-03T19:53:03.492Z,12.68
2018-12-03T19:55:31.233Z,13.03
2018-12-03T19:58:33.366Z,14.25
2018-12-03T20:01:01.179Z,16.12
2018-12-03T20:03:28.542Z,11.83
2018-12-03T20:05:57.464Z,9.95
2018-12-03T20:08:24.939Z,11.30
2018-12-03T20:10:53.929Z,12.98
2018-12-03T20:13:21.440Z,12.60
2018-12-03T20:15:48.830Z,15.55
2018-12-03T20:18:16.136Z,21.05
2018-12-03T20:20:46.325Z,10.98
2018-12-03T20:23:18.037Z,12.68
2018-12-03T20:26:51.010Z,11.65
2018-12-03T20:29:52.184Z,10.43
2018-12-03T20:32:23.126Z,12.30
2018-12-03T20:34:55.482Z,14.03
2018-12-03T20:37:27.864Z,12.88
2018-12-03T20:40:02.083Z,16.02
2018-12-03T20:42:31.757Z,14.53
2018-12-03T20:45:09.643Z,10.48
2018-12-03T20:47:38.942Z,12.20
2018-12-03T20:50:19.501Z,10.95
2018-12-03T20:52:48.688Z,12.65
2018-12-03T20:55:17.317Z,11.80
2018-12-03T20:57:45.030Z,11.20
2018-12-03T21:00:12.601Z,13.93
2018-12-03T21:02:40.672Z,14.70
2018-12-03T21:05:08.331Z,10.43
2018-12-03T21:07:35.765Z,11.08
2018-12-03T21:10:03.336Z,9.08
2018-12-03T21:12:30.682Z,12.15
2018-12-03T21:14:58.024Z,12.70
2018-12-03T21:17:25.408Z,8.48
2018-12-03T21:19:54.978Z,5.60
2018-12-03T21:22:22.851Z,8.48
2018-12-03T21:24:50.198Z,14.13
2018-12-03T21:27:17.760Z,10.20
2018-12-03T21:29:45.142Z,11.85
2018-12-03T21:32:12.543Z,13.85
2018-12-03T21:34:40.326Z,15.85
2018-12-03T21:37:07.866Z,13.60
2018-12-03T21:39:35.198Z,19.57
2018-12-03T21:42:02.767Z,17.95
2018-12-03T21:44:30.172Z,12.47
2018-12-03T21:46:58.016Z,12.80
2018-12-03T21:49:25.304Z,17.37
2018-12-03T21:51:52.678Z,11.90
2018-12-03T21:54:20.231Z,17.27
2018-12-03T21:56:47.875Z,13.22
2018-12-03T21:59:15.455Z,16.57
2018-12-03T22:01:43.157Z,11.80
2018-12-03T22:04:10.598Z,17.65
2018-12-03T22:06:38.177Z,12.47
2018-12-03T22:09:06.767Z,14.93
2018-12-03T22:11:34.320Z,14.00
2018-12-03T22:14:02.148Z,14.33
2018-12-03T22:16:29.556Z,16.15
2018-12-03T22:18:57.317Z,12.75
2018-12-03T22:21:24.830Z,16.25
2018-12-03T22:23:52.801Z,13.72
2018-12-03T22:26:20.359Z,15.40
2018-12-03T22:28:47.966Z,13.53
2018-12-03T22:31:15.349Z,11.30
2018-12-03T22:33:42.666Z,13.72
2018-12-03T22:36:09.988Z,15.32
2018-12-03T22:38:37.533Z,13.03
2018-12-03T22:41:04.865Z,16.77
2018-12-03T22:43:32.250Z,20.12
2018-12-03T22:45:59.545Z,15.38
2018-12-03T22:48:26.872Z,18.17
2018-12-03T22:50:54.255Z,16.15
2018-12-03T22:53:21.808Z,19.52
2018-12-03T22:55:49.125Z,15.90
2018-12-03T22:58:16.481Z,17.85
2018-12-03T23:00:48.115Z,13.65
2018-12-03T23:03:15.426Z,13.28
2018-12-03T23:05:42.965Z,13.20
2018-12-03T23:08:10.485Z,15.63
2018-12-03T23:10:38.031Z,20.95
2018-12-03T23:13:05.353Z,16.10
2018-12-03T23:15:32.895Z,9.93
2018-12-03T23:18:00.246Z,10.82
2018-12-03T23:20:27.552Z,5.45
2018-12-03T23:22:54.915Z,7.45
2018-12-03T23:25:22.551Z,4.80
2018-12-03T23:27:49.869Z,6.40
2018-12-03T23:30:17.420Z,8.60
2018-12-03T23:32:44.785Z,7.80
2018-12-03T23:35:12.597Z,10.48
2018-12-03T23:37:40.396Z,8.20
2018-12-03T23:40:07.976Z,7.95
2018-12-03T23:42:35.484Z,10.30
2018-12-03T23:45:02.805Z,10.75
2018-12-03T23:47:30.114Z,8.15
2018-12-03T23:49:57.680Z,11.08
2018-12-03T23:52:25.008Z,9.03
2018-12-03T23:54:52.879Z,10.65
2018-12-03T23:57:20.279Z,5.92
2018-12-03T23:59:47.563Z,7.75
